sensor_id;sensor_type;location;lat;lon;timestamp;P1;durP1;ratioP1;P2;durP2;ratioP2
77720;SDS011;75573;44.482;0.080;2024-02-23T00:16:40;20.80;;;2.40;;
77720;SDS011;75573;44.482;0.080;2024-02-23T00:43:46;25.57;;;3.20;;
77720;SDS011;75573;44.482;0.080;2024-02-23T01:10:52;27.63;;;2.63;;
77720;SDS011;75573;44.482;0.080;2024-02-23T01:38:01;24.33;;;2.77;;
77720;SDS011;75573;44.482;0.080;2024-02-23T02:05:04;12.50;;;2.37;;
77720;SDS011;75573;44.482;0.080;2024-02-23T02:32:10;9.00;;;1.77;;
77720;SDS011;75573;44.482;0.080;2024-02-23T02:59:18;6.13;;;0.93;;
77720;SDS011;75573;44.482;0.080;2024-02-23T03:26:23;0.97;;;0.13;;
77720;SDS011;75573;44.482;0.080;2024-02-23T03:53:25;3.17;;;1.00;;
77720;SDS011;75573;44.482;0.080;2024-02-23T04:20:30;3.17;;;0.20;;
77720;SDS011;75573;44.482;0.080;2024-02-23T04:47:35;1.97;;;0.30;;
77720;SDS011;75573;44.482;0.080;2024-02-23T05:14:41;-1.00;;;-1.00;;
77720;SDS011;75573;44.482;0.080;2024-02-23T05:41:48;4.83;;;0.87;;
77720;SDS011;75573;44.482;0.080;2024-02-23T06:08:54;0.93;;;0.70;;
77720;SDS011;75573;44.482;0.080;2024-02-23T06:36:00;1.90;;;0.47;;
77720;SDS011;75573;44.482;0.080;2024-02-23T07:03:04;0.60;;;0.13;;
77720;SDS011;75573;44.482;0.080;2024-02-23T07:57:16;3.70;;;0.30;;
77720;SDS011;75573;44.482;0.080;2024-02-23T08:24:23;1.10;;;0.17;;
77720;SDS011;75573;44.482;0.080;2024-02-23T08:51:30;5.40;;;1.13;;
77720;SDS011;75573;44.482;0.080;2024-02-23T09:18:35;3.00;;;0.50;;
77720;SDS011;75573;44.482;0.080;2024-02-23T09:45:42;8.47;;;0.70;;
77720;SDS011;75573;44.482;0.080;2024-02-23T10:12:49;6.93;;;0.60;;
77720;SDS011;75573;44.482;0.080;2024-02-23T10:39:57;3.20;;;0.50;;
77720;SDS011;75573;44.482;0.080;2024-02-23T11:06:54;4.63;;;1.27;;
77720;SDS011;75573;44.482;0.080;2024-02-23T11:33:59;2.53;;;0.40;;
77720;SDS011;75573;44.482;0.080;2024-02-23T12:01:11;3.17;;;0.60;;
77720;SDS011;75573;44.482;0.080;2024-02-23T12:28:21;4.17;;;0.50;;
77720;SDS011;75573;44.482;0.080;2024-02-23T12:55:29;0.30;;;0.20;;
77720;SDS011;75573;44.482;0.080;2024-02-23T13:22:32;2.43;;;0.50;;
77720;SDS011;75573;44.482;0.080;2024-02-23T13:49:30;2.33;;;0.30;;
77720;SDS011;75573;44.482;0.080;2024-02-23T14:16:36;1.40;;;0.70;;
77720;SDS011;75573;44.482;0.080;2024-02-23T14:43:45;7.53;;;0.63;;
77720;SDS011;75573;44.482;0.080;2024-02-23T15:10:52;1.30;;;0.53;;
77720;SDS011;75573;44.482;0.080;2024-02-23T15:37:57;1.53;;;0.20;;
77720;SDS011;75573;44.482;0.080;2024-02-23T16:05:02;0.40;;;0.20;;
77720;SDS011;75573;44.482;0.080;2024-02-23T16:32:06;4.20;;;0.50;;
77720;SDS011;75573;44.482;0.080;2024-02-23T16:59:12;-1.00;;;-1.00;;
77720;SDS011;75573;44.482;0.080;2024-02-23T17:26:17;6.97;;;2.00;;
77720;SDS011;75573;44.482;0.080;2024-02-23T17:53:23;4.80;;;1.37;;
77720;SDS011;75573;44.482;0.080;2024-02-23T18:20:29;2.17;;;0.20;;
77720;SDS011;75573;44.482;0.080;2024-02-23T18:47:35;0.87;;;0.20;;
77720;SDS011;75573;44.482;0.080;2024-02-23T19:14:39;3.50;;;0.67;;
77720;SDS011;75573;44.482;0.080;2024-02-23T19:41:44;3.10;;;0.50;;
77720;SDS011;75573;44.482;0.080;2024-02-23T20:08:51;1.13;;;0.43;;
77720;SDS011;75573;44.482;0.080;2024-02-23T20:35:55;6.47;;;1.70;;
77720;SDS011;75573;44.482;0.080;2024-02-23T21:03:00;2.37;;;1.37;;
77720;SDS011;75573;44.482;0.080;2024-02-23T21:30:07;6.27;;;1.30;;
77720;SDS011;75573;44.482;0.080;2024-02-23T21:57:13;0.10;;;0.10;;
77720;SDS011;75573;44.482;0.080;2024-02-23T22:24:19;-1.00;;;-1.00;;
77720;SDS011;75573;44.482;0.080;2024-02-23T22:51:23;3.70;;;1.00;;
77720;SDS011;75573;44.482;0.080;2024-02-23T23:18:30;2.50;;;0.97;;
77720;SDS011;75573;44.482;0.080;2024-02-23T23:45:36;0.30;;;0.20;;
